^^
Station Historical Data
Daily Summary for September 16, 2017 Units:  Metric    English   Both
« Previous Day
Next Day »
Daily Weekly Monthly Yearly Custom
  High: Low: Average:
Temperature: 24.5 °C 8.5 °C 16 °C
Dew Point: 7.4 °C -0.7 °C 4.2 °C
Humidity: 89% 24% 51%
Wind Speed: 28.8km/h 0km/h 11.6km/h
Wind Gust: 33.8km/h - -
Wind- - South
Pressure: 1020.9 hPa 1014.8 hPa -
Precipitation: 0 mm    
Historical Graphs
 
 
Tabular Data for September 16, 2017
Time Temperature Dew Point Pressure Wind Wind Speed Wind Gust Humidity Rainfall Rate (Hourly) solar Conditions
00:04 10.3 °C 5.9 °C 1017.8 hPa South 25.9 km/h 30.6 km/h 74% 0 mm 0.0 W/m2
00:14 10.2 °C 5.8 °C 1017.8 hPa South 25.9 km/h 27.4 km/h 74% 0 mm 0.0 W/m2
00:24 10.2 °C 6 °C 1017.8 hPa South 20.9 km/h 27.4 km/h 75% 0 mm 0.0 W/m2
00:34 10.2 °C 6 °C 1018.2 hPa South 24.1 km/h 32.2 km/h 75% 0 mm 0.0 W/m2
00:44 10.2 °C 6 °C 1017.8 hPa SSW 24.1 km/h 33.8 km/h 75% 0 mm 0.0 W/m2
00:54 10.2 °C 6.2 °C 1017.8 hPa South 24.1 km/h 29 km/h 76% 0 mm 0.0 W/m2
01:04 10.2 °C 6.2 °C 1017.8 hPa SSW 17.7 km/h 30.6 km/h 76% 0 mm 0.0 W/m2
01:14 10.1 °C 6.1 °C 1017.8 hPa SSW 20.9 km/h 30.6 km/h 76% 0 mm 0.0 W/m2
01:24 10.1 °C 6.3 °C 1017.8 hPa SSW 25.9 km/h 30.6 km/h 77% 0 mm 0.0 W/m2
01:34 10.1 °C 6.3 °C 1017.8 hPa SSW 20.9 km/h 30.6 km/h 77% 0 mm 0.0 W/m2
01:44 10 °C 6.2 °C 1017.8 hPa South 20.9 km/h 30.6 km/h 77% 0 mm 0.0 W/m2
01:55 9.9 °C 6.2 °C 1017.8 hPa SSW 28.8 km/h 30.6 km/h 78% 0 mm 0.0 W/m2
02:05 9.8 °C 6.1 °C 1017.8 hPa SSW 28.8 km/h 32.2 km/h 78% 0 mm 0.0 W/m2
02:20 9.8 °C 6.3 °C 1018.2 hPa South 27.4 km/h 33.8 km/h 79% 0 mm 0.0 W/m2
02:34 9.6 °C 6.3 °C 1017.8 hPa South 22.7 km/h 30.6 km/h 80% 0 mm 0.0 W/m2
02:55 9.4 °C 6.7 °C 1017.8 hPa SSW 20.9 km/h 27.4 km/h 83% 0 mm 0.0 W/m2
03:05 9.3 °C 6.7 °C 1017.8 hPa SSW 17.7 km/h 27.4 km/h 84% 0 mm 0.0 W/m2
03:25 9.1 °C 6.5 °C 1017.8 hPa South 16.3 km/h 19.3 km/h 84% 0 mm 0.0 W/m2
03:35 9 °C 6.6 °C 1018.2 hPa South 14.3 km/h 22.5 km/h 85% 0 mm 0.0 W/m2
03:45 8.9 °C 6.7 °C 1017.8 hPa South 19.5 km/h 22.5 km/h 86% 0 mm 0.0 W/m2
03:55 8.9 °C 6.7 °C 1017.8 hPa SSW 24.1 km/h 24.1 km/h 86% 0 mm 0.0 W/m2
04:05 8.9 °C 6.5 °C 1017.8 hPa South 19.5 km/h 24.1 km/h 85% 0 mm 0.0 W/m2
04:15 9.1 °C 7.4 °C 1018.2 hPa SSW 19.5 km/h 24.1 km/h 89% 0 mm 0.0 W/m2
04:25 9.1 °C 6.7 °C 1018.2 hPa South 13 km/h 20.9 km/h 85% 0 mm 0.0 W/m2
04:35 9.1 °C 6.7 °C 1018.2 hPa South 14.3 km/h 20.9 km/h 85% 0 mm 0.0 W/m2
04:45 9 °C 6.4 °C 1018.2 hPa South 16.3 km/h 19.3 km/h 84% 0 mm 0.0 W/m2
04:54 9.1 °C 6.5 °C 1018.2 hPa South 16.3 km/h 24.1 km/h 84% 0 mm 0.0 W/m2
05:04 8.9 °C 6.3 °C 1018.5 hPa South 13 km/h 16.1 km/h 84% 0 mm 0.0 W/m2
05:15 8.9 °C 6.3 °C 1018.5 hPa South 11.1 km/h 14.5 km/h 84% 0 mm 0.0 W/m2
05:25 8.8 °C 6.4 °C 1018.8 hPa South 16.3 km/h 16.3 km/h 85% 0 mm 0.0 W/m2
05:35 8.7 °C 6.3 °C 1018.8 hPa South 11.1 km/h 12.9 km/h 85% 0 mm 0.0 W/m2
06:17 8.6 °C 6.2 °C 1019.2 hPa SSW 9.7 km/h 12.9 km/h 85% 0 mm 0.0 W/m2
06:31 8.5 °C 6.1 °C 1019.5 hPa SSW 16.3 km/h 20.9 km/h 85% 0 mm 0.0 W/m2
07:02 8.6 °C 6 °C 1019.9 hPa SSW 13 km/h 14.5 km/h 84% 0 mm 12.0 W/m2
07:16 8.7 °C 6 °C 1019.9 hPa SSW 9.7 km/h 12.9 km/h 83% 0 mm 33.0 W/m2
07:26 8.8 °C 6.1 °C 1020.2 hPa SSW 13 km/h 14.5 km/h 83% 0 mm 62.0 W/m2
07:53 9.7 °C 6.2 °C 1020.2 hPa SSW 14.3 km/h 17.7 km/h 79% 0 mm 160.0 W/m2
08:07 10.1 °C 6.4 °C 1020.5 hPa SSW 14.3 km/h 17.7 km/h 78% 0 mm 223.0 W/m2
08:23 10.5 °C 6.3 °C 1020.5 hPa SSW 16.3 km/h 19.3 km/h 75% 0 mm 274.0 W/m2
08:37 10.8 °C 6.4 °C 1020.9 hPa SSW 7.9 km/h 12.9 km/h 74% 0 mm 327.0 W/m2
08:47 11.2 °C 6.5 °C 1020.5 hPa SSW 13 km/h 16.1 km/h 73% 0 mm 360.0 W/m2
09:03 11.6 °C 6.5 °C 1020.5 hPa SSW 11.1 km/h 14.5 km/h 71% 0 mm 415.0 W/m2
09:18 12.1 °C 6.6 °C 1020.9 hPa SSW 9.7 km/h 16.1 km/h 69% 0 mm 462.0 W/m2
09:48 12.9 °C 6.5 °C 1020.9 hPa SW 17.7 km/h 19.3 km/h 65% 0 mm 559.0 W/m2
10:04 13.6 °C 6.5 °C 1020.9 hPa SW 13 km/h 14.5 km/h 62% 0 mm 598.0 W/m2
10:19 13.8 °C 6.2 °C 1020.5 hPa SSW 11.1 km/h 14.5 km/h 60% 0 mm 640.0 W/m2
10:33 14.5 °C 6.1 °C 1020.5 hPa SSW 7.9 km/h 16.1 km/h 57% 0 mm 677.0 W/m2
10:44 15.1 °C 6.1 °C 1020.5 hPa SSW 9.7 km/h 11.3 km/h 55% 0 mm 701.0 W/m2
11:00 15.8 °C 6 °C 1020.5 hPa SSW 9.7 km/h 14.5 km/h 52% 0 mm 731.0 W/m2
11:14 16.2 °C 5.5 °C 1019.9 hPa Calm     49% 0 mm 763.0 W/m2
11:25 16.8 °C 5.7 °C 1019.9 hPa Calm     48% 0 mm 784.0 W/m2
11:30 16.9 °C 5.2 °C 1019.9 hPa Calm     46% 0 mm 795.0 W/m2
11:40 17.7 °C 5.3 °C 1019.5 hPa Calm     44% 0 mm 803.0 W/m2
11:47 18.3 °C 5.5 °C 1019.5 hPa Calm     43% 0 mm 812.0 W/m2
11:58 18.4 °C 5.3 °C 1019.5 hPa Calm     42% 0 mm 812.0 W/m2
12:10 18.9 °C 5 °C 1019.2 hPa Calm     40% 0 mm 833.0 W/m2
12:20 19.2 °C 4.9 °C 1018.8 hPa Calm     39% 0 mm 837.0 W/m2
12:30 19.1 °C 4.4 °C 1018.8 hPa Calm     38% 0 mm 838.0 W/m2
12:40 19.3 °C 3.9 °C 1018.5 hPa Calm     36% 0 mm 844.0 W/m2
12:50 20.1 °C 4.6 °C 1018.5 hPa SSW 6.4 km/h 6.4 km/h 36% 0 mm 844.0 W/m2
13:01 20.3 °C 4.3 °C 1018.2 hPa SSW 3.2 km/h 4.8 km/h 35% 0 mm 840.0 W/m2
13:09 20.3 °C 3.9 °C 1017.8 hPa Calm   3.2 km/h 34% 0 mm 837.0 W/m2
13:20 20.6 °C 4.2 °C 1017.5 hPa Calm   8 km/h 34% 0 mm 831.0 W/m2
13:31 20.7 °C 3.8 °C 1017.5 hPa Calm     33% 0 mm 823.0 W/m2
13:41 21.3 °C 3.9 °C 1017.2 hPa Calm   1.6 km/h 32% 0 mm 814.0 W/m2
14:10 21.9 °C 3.1 °C 1016.5 hPa Calm   4.8 km/h 29% 0 mm 780.0 W/m2
14:25 22.1 °C 3.2 °C 1016.5 hPa Calm   8 km/h 29% 0 mm 754.0 W/m2
14:40 22.7 °C 3.2 °C 1016.1 hPa SSW 6.4 km/h 12.9 km/h 28% 0 mm 726.0 W/m2
15:10 22.9 °C 3.4 °C 1015.8 hPa Calm     28% 0 mm 657.0 W/m2
15:24 23.3 °C 3.2 °C 1015.5 hPa South 11.1 km/h 14.5 km/h 27% 0 mm 619.0 W/m2
15:45 23.3 °C 3.2 °C 1015.1 hPa Calm   8 km/h 27% 0 mm 564.0 W/m2
15:53 23.4 °C 3.3 °C 1015.1 hPa Calm     27% 0 mm 536.0 W/m2
16:02 23.7 °C 3.6 °C 1015.1 hPa Calm     27% 0 mm 503.0 W/m2
16:12 23.9 °C 3.2 °C 1015.1 hPa Calm     26% 0 mm 473.0 W/m2
16:24 24.3 °C 3 °C 1015.1 hPa South 7.9 km/h 11.3 km/h 25% 0 mm 438.0 W/m2
16:47 24.4 °C 3.1 °C 1015.1 hPa Calm   9.7 km/h 25% 0 mm 371.0 W/m2
16:56 24.5 °C 3.2 °C 1015.1 hPa SSW 6.4 km/h 14.5 km/h 25% 0 mm 336.0 W/m2
17:06 24.4 °C 2.5 °C 1015.1 hPa SSW 6.4 km/h 16.1 km/h 24% 0 mm 301.0 W/m2
17:30 24.3 °C 3 °C 1014.8 hPa SSW 9.7 km/h 16.1 km/h 25% 0 mm 206.0 W/m2
17:38 24.3 °C 3 °C 1015.1 hPa SW 11.1 km/h 16.1 km/h 25% 0 mm 165.0 W/m2
17:48 24.2 °C 2.9 °C 1015.1 hPa SW 11.1 km/h 16.1 km/h 25% 0 mm 123.0 W/m2
17:56 24 °C 2.8 °C 1015.1 hPa SW 11.1 km/h 17.7 km/h 25% 0 mm 104.0 W/m2
18:07 23.7 °C 2.5 °C 1015.1 hPa SW 13 km/h 16.1 km/h 25% 0 mm 69.0 W/m2
18:17 23.6 °C 2.4 °C 1015.1 hPa SW 11.1 km/h 12.9 km/h 25% 0 mm 42.0 W/m2
18:27 23.3 °C 2.2 °C 1015.1 hPa SW 13 km/h 16.1 km/h 25% 0 mm 18.0 W/m2
18:38 22.9 °C 2.4 °C 1015.1 hPa SW 13 km/h 14.5 km/h 26% 0 mm 11.0 W/m2
18:54 22.3 °C 1.9 °C 1015.1 hPa SW 9.7 km/h 12.9 km/h 26% 0 mm 0.0 W/m2
19:11 21.8 °C 2 °C 1015.1 hPa SW 7.9 km/h 11.3 km/h 27% 0 mm 0.0 W/m2
19:27 21.4 °C 1.6 °C 1015.5 hPa SW 6.4 km/h 8 km/h 27% 0 mm 0.0 W/m2
19:47 20.4 °C 1.8 °C 1015.5 hPa SW 6.4 km/h 6.4 km/h 29% 0 mm 0.0 W/m2
21:07 18.9 °C -0.5 °C 1016.1 hPa Calm     27% 0 mm 0.0 W/m2
21:39 18.1 °C -0.7 °C 1016.1 hPa Calm     28% 0 mm 0.0 W/m2
21:52 18.7 °C -0.2 °C 1016.1 hPa SSW 19.5 km/h 19.5 km/h 28% 0 mm 0.0 W/m2
22:07 19.2 °C 0.2 °C 1016.1 hPa SE 16.3 km/h 20.9 km/h 28% 0 mm 0.0 W/m2
22:19 19.3 °C 0.8 °C 1016.1 hPa SE 20.9 km/h 25.7 km/h 29% 0 mm 0.0 W/m2
22:27 19.3 °C 0.8 °C 1016.1 hPa SE 16.3 km/h 22.5 km/h 29% 0 mm 0.0 W/m2
22:33 19.3 °C 0.8 °C 1016.1 hPa SE 20.9 km/h 25.7 km/h 29% 0 mm 0.0 W/m2
22:42 19.2 °C 0.7 °C 1016.1 hPa SE 16.3 km/h 22.5 km/h 29% 0 mm 0.0 W/m2
22:48 19.1 °C 0.6 °C 1016.1 hPa SE 16.3 km/h 20.9 km/h 29% 0 mm 0.0 W/m2
22:58 19.1 °C 0.2 °C 1016.1 hPa SE 13 km/h 14.5 km/h 28% 0 mm 0.0 W/m2
23:07 18.9 °C 0 °C 1016.1 hPa SE 13 km/h 14.5 km/h 28% 0 mm 0.0 W/m2
23:13 18.8 °C -0.1 °C 1016.1 hPa SE 13 km/h 16.1 km/h 28% 0 mm 0.0 W/m2
23:18 18.7 °C -0.2 °C 1015.8 hPa SE 14.3 km/h 17.7 km/h 28% 0 mm 0.0 W/m2
23:23 18.7 °C -0.2 °C 1015.8 hPa SE 13 km/h 17.7 km/h 28% 0 mm 0.0 W/m2
23:29 18.6 °C -0.3 °C 1015.8 hPa SE 17.7 km/h 20.9 km/h 28% 0 mm 0.0 W/m2
23:34 18.6 °C -0.3 °C 1015.8 hPa SE 13 km/h 19.3 km/h 28% 0 mm 0.0 W/m2
23:43 18.3 °C -0.5 °C 1015.8 hPa SE 13 km/h 16.1 km/h 28% 0 mm 0.0 W/m2
23:48 18.2 °C -0.1 °C 1015.8 hPa SE 11.1 km/h 14.5 km/h 29% 0 mm 0.0 W/m2
23:53 18.1 °C -0.2 °C 1015.8 hPa SE 7.9 km/h 14.5 km/h 29% 0 mm 0.0 W/m2
23:59 18.1 °C -0.2 °C 1015.8 hPa Calm   9.7 km/h 29% 0 mm 0.0 W/m2
Canyon Roadhouse, Fishriver Canyon, Namibia
Compliments of Weather Underground - 2.25 mb